createdAt,value
2019-04-07T00:08:03.308Z,92889.45
2019-04-07T00:23:36.414Z,92885.67
2019-04-07T00:39:09.481Z,92898.09
2019-04-07T00:54:43.343Z,92891.10
2019-04-07T01:10:16.605Z,92868.58
2019-04-07T01:25:50.068Z,92864.32
2019-04-07T01:41:27.516Z,92862.20
2019-04-07T01:57:03.512Z,92840.20
2019-04-07T02:12:43.641Z,92841.66
2019-04-07T02:28:32.999Z,92828.28
2019-04-07T02:44:10.846Z,92843.48
2019-04-07T03:16:00.905Z,92836.70
2019-04-07T03:31:43.391Z,92829.53
2019-04-07T03:47:23.386Z,92836.58
2019-04-07T04:03:00.393Z,92830.42
2019-04-07T04:18:33.414Z,92825.10
2019-04-07T04:34:06.720Z,92826.83
2019-04-07T04:49:40.365Z,92832.20
2019-04-07T05:05:13.940Z,92836.47
2019-04-07T05:20:47.695Z,92802.16
2019-04-07T05:36:21.419Z,92843.98
2019-04-07T05:51:54.735Z,92844.59
2019-04-07T06:07:30.640Z,92859.31
2019-04-07T06:23:02.796Z,92851.08
2019-04-07T06:38:38.911Z,92863.02
2019-04-07T06:54:21.630Z,92863.88
2019-04-07T07:10:10.643Z,92871.28
2019-04-07T07:25:43.633Z,92878.32
2019-04-07T07:41:19.754Z,92873.32
2019-04-07T07:56:53.034Z,92880.14
2019-04-07T08:12:27.100Z,92881.36
2019-04-07T08:28:02.199Z,92879.42
2019-04-07T08:43:35.177Z,92876.16
2019-04-07T08:59:11.268Z,92862.64
2019-04-07T09:14:43.962Z,92835.63
2019-04-07T09:30:26.221Z,92838.80
2019-04-07T09:46:14.764Z,92830.39
2019-04-07T10:01:52.651Z,92805.77
2019-04-07T10:17:32.948Z,92803.87
2019-04-07T10:33:19.196Z,92779.81
2019-04-07T10:49:04.452Z,92765.84
2019-04-07T11:04:43.998Z,92757.07
2019-04-07T11:20:21.483Z,92743.48
2019-04-07T11:36:02.336Z,92734.74
2019-04-07T11:51:46.828Z,92729.36
2019-04-07T12:07:26.279Z,92730.77
2019-04-07T12:23:06.326Z,92700.71
2019-04-07T12:38:56.348Z,92690.40
2019-04-07T12:54:39.620Z,92679.31
2019-04-07T13:10:14.367Z,92670.63
2019-04-07T13:25:54.298Z,92674.55
2019-04-07T13:41:40.793Z,92672.91
2019-04-07T13:57:23.224Z,92666.59
2019-04-07T14:12:57.719Z,92659.84
2019-04-07T14:28:36.006Z,92655.48
2019-04-07T14:44:12.834Z,92647.92
2019-04-07T14:59:48.472Z,92650.50
2019-04-07T15:15:22.551Z,92653.52
2019-04-07T15:30:56.809Z,92659.47
2019-04-07T15:46:30.851Z,92660.48
2019-04-07T16:02:04.428Z,92654.81
2019-04-07T16:17:38.411Z,92654.25
2019-04-07T16:33:11.549Z,92657.26
2019-04-07T16:48:45.084Z,92666.19
2019-04-07T17:04:20.102Z,92668.03
2019-04-07T17:19:58.207Z,92680.67
2019-04-07T17:35:31.001Z,92686.28
2019-04-07T18:07:25.479Z,92716.94
2019-04-07T18:23:03.485Z,92712.80
2019-04-07T18:38:45.013Z,92714.66
2019-04-07T18:54:22.725Z,92706.34
2019-04-07T19:10:09.600Z,92709.27
2019-04-07T19:25:41.936Z,92707.23
2019-04-07T19:41:20.202Z,92701.45
2019-04-07T19:56:56.976Z,92693.06
2019-04-07T20:12:37.962Z,92685.72
2019-04-07T20:28:15.278Z,92676.27
2019-04-07T20:43:53.831Z,92673.19
2019-04-07T20:59:31.752Z,92676.45
2019-04-07T21:15:18.208Z,92674.54
2019-04-07T21:30:46.266Z,92670.77
2019-04-07T21:46:27.358Z,92658.51
2019-04-07T22:18:21.860Z,92639.12
2019-04-07T22:33:57.421Z,92636.00
2019-04-07T22:49:32.210Z,92627.58
2019-04-07T23:05:05.062Z,92625.60
2019-04-07T23:20:39.607Z,92615.95
2019-04-07T23:36:13.646Z,92604.99
2019-04-07T23:51:47.797Z,92590.27
